Denmark, Wisconsin
Current Conditions -  °F | °C
As of 3:56 AM on Tuesday 21 Oct 2014 (Local Time) from KMTW Reporting Station
Overcast Overcast  
Wind Chill: 40°   Ceiling: 2300
Heat Index: 46°   Visibility: 10mi
Dew Point: 40°   Wind: 13mph
Humidity: 79%   Direction: 360°N
Pressure: 30.07"   Gusts: NA
Location:  44.35°N, 87.83°W
Report Text: KMTW 210856Z AUTO 36011KT 10SM OVC023 08/04 A3007 RMK AO2 SLP210 T00780044 51010
Loading
Personal Weather Stations






























Interactive Weather Map
Tropical Storm Tracking
New forecast layout! Learn more

10-Day Weather Forecast

Advertisements
Track Severe Weather on mobile